Melrose, WI

6:03 AM CDT on July 23, 2016 (GMT -0500)
Black Oak | | Change Station
Active Advisory: Special Statement Active Notice: Record Report

Elev 781 ft 44.06 °N, 91.15 °W | Updated 5 minutes ago

Mist
Mist
67.6 °F
Feels Like 67.6 °F
N
0.0
Wind Variable Wind from NE

Today
High -- | Low -- °F
--% Chance of Precip.
Yesterday
High -- | Low -- °F
Precip. -- in
Pressure 29.98 in
Visibility 1.5 miles
Clouds
Dew Point 67 °F
Humidity 99%
Rainfall 0.00 in
Snow Depth Not available.
5:42 AM 8:37 PM
Waning Gibbous, 86% visible
METAR KBCK 231055Z AUTO 00000KT 1 1/2SM BR VV007 16/16 A2998 RMK AO2 VIS 1/4V5 T01600160
Pressure 29.98 in
Visibility 1.5 miles
Clouds
Dew Point 67 °F
Humidity 99%
Rainfall 0.00 in
Snow Depth Not available.
5:42 AM 8:37 PM
Waning Gibbous, 86% visible
METAR KBCK 231055Z AUTO 00000KT 1 1/2SM BR VV007 16/16 A2998 RMK AO2 VIS 1/4V5 T01600160

10-Day Weather Forecast

Almanac

Astronomy

Jul. 23, 2016 Rise Set
Actual Time
Civil Twilight
Nautical Twilight
Astronomical Twilight
Moon
Length of Visible Light
Length of Day
Tomorrow will be .
, % of the Moon is Illuminated

Today's Extremes

State Highs State Lows

Community

WunderPhotos

Upload Photos

1,926,798 photos uploaded!

WunderBlog® & News

Nearby

Air Quality

  Air Quality AQ Index Pollutant
Not available.

Snow Depth

Station Depth Elevation

Earthquake Activity

City Distance Mag. Time & Date
Minimum magnitude displayed is 2.5.

Coastal Water Temperatures

Place Temperature

Stations

Nearby Weather Stations

Station Location Temp. Windchill Dew Point Humidity Wind Precip. Elev Updated Type
                   

Watches & Warnings

Special Statement
Issued: 3:39 AM CDT Jul. 23, 2016 – National Weather Service

... Areas of dense fog expected through mid morning...

Through 9 am, areas of dense fog will be seen across parts of
western Wisconsin, northeast Iowa, and southeast Minnesota. This
fog will reduce visibilities to less than a quarter mile in some
locations.

For those traveling this morning, be alert for rapidly changing
visibilities and use low beam headlights if you encounter dense
fog.


Boyne


339 am CDT Sat Jul 23 2016

... Areas of dense fog expected through mid morning...

Through 9 am, areas of dense fog will be seen across parts of
western Wisconsin, northeast Iowa, and southeast Minnesota. This
fog will reduce visibilities to less than a quarter mile in some
locations.

For those traveling this morning, be alert for rapidly changing
visibilities and use low beam headlights if you encounter dense
fog.


Boyne

339 am CDT Sat Jul 23 2016

... Areas of dense fog expected through mid morning...

Through 9 am, areas of dense fog will be seen across parts of
western Wisconsin, northeast Iowa, and southeast Minnesota. This
fog will reduce visibilities to less than a quarter mile in some
locations.

For those traveling this morning, be alert for rapidly changing
visibilities and use low beam headlights if you encounter dense
fog.


Boyne